sensor_id;sensor_type;location;lat;lon;timestamp;temperature;humidity
34768;DHT22;21755;43.608;1.236;2022-09-23T00:00:35;14.50;99.90
34768;DHT22;21755;43.608;1.236;2022-09-23T00:03:01;14.50;99.90
34768;DHT22;21755;43.608;1.236;2022-09-23T00:05:29;14.40;99.90
34768;DHT22;21755;43.608;1.236;2022-09-23T00:07:56;14.30;99.90
34768;DHT22;21755;43.608;1.236;2022-09-23T00:10:24;14.30;99.90
34768;DHT22;21755;43.608;1.236;2022-09-23T00:12:50;14.30;99.90
34768;DHT22;21755;43.608;1.236;2022-09-23T00:15:16;14.30;99.90
34768;DHT22;21755;43.608;1.236;2022-09-23T00:17:43;14.20;99.90
34768;DHT22;21755;43.608;1.236;2022-09-23T00:20:09;14.10;99.90
34768;DHT22;21755;43.608;1.236;2022-09-23T00:22:35;14.10;99.90
34768;DHT22;21755;43.608;1.236;2022-09-23T00:25:03;14.20;99.90
34768;DHT22;21755;43.608;1.236;2022-09-23T00:27:29;14.20;99.90
34768;DHT22;21755;43.608;1.236;2022-09-23T00:29:55;14.20;99.90
34768;DHT22;21755;43.608;1.236;2022-09-23T00:32:21;14.10;99.90
34768;DHT22;21755;43.608;1.236;2022-09-23T00:34:47;14.10;99.90
34768;DHT22;21755;43.608;1.236;2022-09-23T00:37:14;14.10;99.90
34768;DHT22;21755;43.608;1.236;2022-09-23T00:39:41;14.10;99.90
34768;DHT22;21755;43.608;1.236;2022-09-23T00:42:13;14.00;99.90
34768;DHT22;21755;43.608;1.236;2022-09-23T00:44:47;14.00;99.90
34768;DHT22;21755;43.608;1.236;2022-09-23T00:47:15;14.00;99.90
34768;DHT22;21755;43.608;1.236;2022-09-23T00:49:45;14.00;99.90
34768;DHT22;21755;43.608;1.236;2022-09-23T00:52:15;13.90;99.90
34768;DHT22;21755;43.608;1.236;2022-09-23T00:54:45;13.80;99.90
34768;DHT22;21755;43.608;1.236;2022-09-23T00:57:13;13.80;99.90
34768;DHT22;21755;43.608;1.236;2022-09-23T00:59:41;13.80;99.90
34768;DHT22;21755;43.608;1.236;2022-09-23T01:02:07;13.80;99.90
34768;DHT22;21755;43.608;1.236;2022-09-23T01:04:34;13.80;99.90
34768;DHT22;21755;43.608;1.236;2022-09-23T01:07:01;13.70;99.90
34768;DHT22;21755;43.608;1.236;2022-09-23T01:09:27;13.70;99.90
34768;DHT22;21755;43.608;1.236;2022-09-23T01:11:59;13.60;99.90
34768;DHT22;21755;43.608;1.236;2022-09-23T01:14:44;13.60;99.90
34768;DHT22;21755;43.608;1.236;2022-09-23T01:17:46;13.60;99.90
34768;DHT22;21755;43.608;1.236;2022-09-23T01:32:06;13.50;99.90
34768;DHT22;21755;43.608;1.236;2022-09-23T01:34:46;13.50;99.90
34768;DHT22;21755;43.608;1.236;2022-09-23T01:37:42;13.50;99.90
34768;DHT22;21755;43.608;1.236;2022-09-23T01:40:25;13.50;99.90
34768;DHT22;21755;43.608;1.236;2022-09-23T01:42:57;13.50;99.90
34768;DHT22;21755;43.608;1.236;2022-09-23T01:45:39;13.40;99.90
34768;DHT22;21755;43.608;1.236;2022-09-23T01:48:22;13.40;99.90
34768;DHT22;21755;43.608;1.236;2022-09-23T01:50:56;13.50;99.90
34768;DHT22;21755;43.608;1.236;2022-09-23T01:53:34;13.40;99.90
34768;DHT22;21755;43.608;1.236;2022-09-23T01:56:07;13.30;99.90
34768;DHT22;21755;43.608;1.236;2022-09-23T01:59:06;13.40;99.90
34768;DHT22;21755;43.608;1.236;2022-09-23T02:01:40;13.30;99.90
34768;DHT22;21755;43.608;1.236;2022-09-23T02:04:15;13.40;99.90
34768;DHT22;21755;43.608;1.236;2022-09-23T02:06:51;13.30;99.90
34768;DHT22;21755;43.608;1.236;2022-09-23T02:09:24;13.40;99.90
34768;DHT22;21755;43.608;1.236;2022-09-23T02:11:59;13.40;99.90
34768;DHT22;21755;43.608;1.236;2022-09-23T02:14:37;13.40;99.90
34768;DHT22;21755;43.608;1.236;2022-09-23T02:17:09;13.30;99.90
34768;DHT22;21755;43.608;1.236;2022-09-23T02:19:52;13.30;99.90
34768;DHT22;21755;43.608;1.236;2022-09-23T02:22:25;13.30;99.90
34768;DHT22;21755;43.608;1.236;2022-09-23T02:24:51;13.20;99.90
34768;DHT22;21755;43.608;1.236;2022-09-23T02:41:05;13.20;99.90
34768;DHT22;21755;43.608;1.236;2022-09-23T02:43:46;13.10;99.90
34768;DHT22;21755;43.608;1.236;2022-09-23T02:46:15;13.10;99.90
34768;DHT22;21755;43.608;1.236;2022-09-23T02:48:59;13.10;99.90
34768;DHT22;21755;43.608;1.236;2022-09-23T02:51:29;13.10;99.90
34768;DHT22;21755;43.608;1.236;2022-09-23T02:53:59;13.10;99.90
34768;DHT22;21755;43.608;1.236;2022-09-23T02:56:27;13.10;99.90
34768;DHT22;21755;43.608;1.236;2022-09-23T02:58:54;13.10;99.90
34768;DHT22;21755;43.608;1.236;2022-09-23T03:01:31;13.10;99.90
34768;DHT22;21755;43.608;1.236;2022-09-23T03:06:52;13.10;99.90
34768;DHT22;21755;43.608;1.236;2022-09-23T03:12:55;13.00;99.90
34768;DHT22;21755;43.608;1.236;2022-09-23T03:17:48;13.00;99.90
34768;DHT22;21755;43.608;1.236;2022-09-23T03:23:12;12.90;99.90
34768;DHT22;21755;43.608;1.236;2022-09-23T03:25:41;12.90;99.90
34768;DHT22;21755;43.608;1.236;2022-09-23T03:28:11;12.80;99.90
34768;DHT22;21755;43.608;1.236;2022-09-23T03:30:39;12.80;99.90
34768;DHT22;21755;43.608;1.236;2022-09-23T03:33:09;12.80;99.90
34768;DHT22;21755;43.608;1.236;2022-09-23T03:35:41;12.80;99.90
34768;DHT22;21755;43.608;1.236;2022-09-23T03:38:30;12.80;99.90
34768;DHT22;21755;43.608;1.236;2022-09-23T03:40:59;12.70;99.90
34768;DHT22;21755;43.608;1.236;2022-09-23T03:43:29;12.80;99.90
34768;DHT22;21755;43.608;1.236;2022-09-23T03:45:56;12.80;99.90
34768;DHT22;21755;43.608;1.236;2022-09-23T03:48:23;12.70;99.90
34768;DHT22;21755;43.608;1.236;2022-09-23T03:50:49;12.70;99.90
34768;DHT22;21755;43.608;1.236;2022-09-23T03:53:15;12.70;99.90
34768;DHT22;21755;43.608;1.236;2022-09-23T03:55:42;12.70;99.90
34768;DHT22;21755;43.608;1.236;2022-09-23T03:58:11;12.60;99.90
34768;DHT22;21755;43.608;1.236;2022-09-23T04:00:37;12.50;99.90
34768;DHT22;21755;43.608;1.236;2022-09-23T04:03:03;12.60;99.90
34768;DHT22;21755;43.608;1.236;2022-09-23T04:05:29;12.50;99.90
34768;DHT22;21755;43.608;1.236;2022-09-23T04:07:55;12.50;99.90
34768;DHT22;21755;43.608;1.236;2022-09-23T04:10:21;12.50;99.90
34768;DHT22;21755;43.608;1.236;2022-09-23T04:12:47;12.50;99.90
34768;DHT22;21755;43.608;1.236;2022-09-23T04:15:13;12.40;99.90
34768;DHT22;21755;43.608;1.236;2022-09-23T04:17:39;12.40;99.90
34768;DHT22;21755;43.608;1.236;2022-09-23T04:20:05;12.40;99.90
34768;DHT22;21755;43.608;1.236;2022-09-23T04:22:34;12.40;99.90
34768;DHT22;21755;43.608;1.236;2022-09-23T04:25:03;12.40;99.90
34768;DHT22;21755;43.608;1.236;2022-09-23T04:27:29;12.30;99.90
34768;DHT22;21755;43.608;1.236;2022-09-23T04:29:55;12.30;99.90
34768;DHT22;21755;43.608;1.236;2022-09-23T04:32:21;12.20;99.90
34768;DHT22;21755;43.608;1.236;2022-09-23T04:34:47;12.20;99.90
34768;DHT22;21755;43.608;1.236;2022-09-23T04:37:12;12.20;99.90
34768;DHT22;21755;43.608;1.236;2022-09-23T04:39:38;12.20;99.90
34768;DHT22;21755;43.608;1.236;2022-09-23T04:42:04;12.20;99.90
34768;DHT22;21755;43.608;1.236;2022-09-23T04:44:30;12.20;99.90
34768;DHT22;21755;43.608;1.236;2022-09-23T04:46:56;12.10;99.90
34768;DHT22;21755;43.608;1.236;2022-09-23T04:49:22;12.20;99.90
34768;DHT22;21755;43.608;1.236;2022-09-23T04:51:49;12.10;99.90
34768;DHT22;21755;43.608;1.236;2022-09-23T04:54:14;12.10;99.90
34768;DHT22;21755;43.608;1.236;2022-09-23T04:56:41;12.10;99.90
34768;DHT22;21755;43.608;1.236;2022-09-23T04:59:07;12.10;99.90
34768;DHT22;21755;43.608;1.236;2022-09-23T05:01:34;12.00;99.90
34768;DHT22;21755;43.608;1.236;2022-09-23T05:04:06;12.10;99.90
34768;DHT22;21755;43.608;1.236;2022-09-23T05:06:33;12.00;99.90
34768;DHT22;21755;43.608;1.236;2022-09-23T05:09:00;12.00;99.90
34768;DHT22;21755;43.608;1.236;2022-09-23T05:11:28;11.90;99.90
34768;DHT22;21755;43.608;1.236;2022-09-23T05:13:54;11.80;99.90
34768;DHT22;21755;43.608;1.236;2022-09-23T05:16:22;11.90;99.90
34768;DHT22;21755;43.608;1.236;2022-09-23T05:18:49;11.80;99.90
34768;DHT22;21755;43.608;1.236;2022-09-23T05:21:17;11.80;99.90
34768;DHT22;21755;43.608;1.236;2022-09-23T05:23:48;11.80;99.90
34768;DHT22;21755;43.608;1.236;2022-09-23T05:26:14;11.80;99.90
34768;DHT22;21755;43.608;1.236;2022-09-23T05:28:40;11.80;99.90
34768;DHT22;21755;43.608;1.236;2022-09-23T05:31:12;11.80;99.90
34768;DHT22;21755;43.608;1.236;2022-09-23T05:33:43;11.80;99.90
34768;DHT22;21755;43.608;1.236;2022-09-23T05:36:11;11.80;99.90
34768;DHT22;21755;43.608;1.236;2022-09-23T05:38:37;11.90;99.90
34768;DHT22;21755;43.608;1.236;2022-09-23T05:41:09;11.90;99.90
34768;DHT22;21755;43.608;1.236;2022-09-23T05:43:35;11.90;99.90
34768;DHT22;21755;43.608;1.236;2022-09-23T05:46:03;11.90;99.90
34768;DHT22;21755;43.608;1.236;2022-09-23T05:48:30;11.90;99.90
34768;DHT22;21755;43.608;1.236;2022-09-23T05:50:57;11.90;99.90
34768;DHT22;21755;43.608;1.236;2022-09-23T05:53:23;11.90;99.90
34768;DHT22;21755;43.608;1.236;2022-09-23T05:55:49;12.00;99.90
34768;DHT22;21755;43.608;1.236;2022-09-23T05:58:14;12.00;99.90
34768;DHT22;21755;43.608;1.236;2022-09-23T06:00:41;12.00;99.90
34768;DHT22;21755;43.608;1.236;2022-09-23T06:03:14;11.90;99.90
34768;DHT22;21755;43.608;1.236;2022-09-23T06:05:41;12.00;99.90
34768;DHT22;21755;43.608;1.236;2022-09-23T06:08:07;12.00;99.90
34768;DHT22;21755;43.608;1.236;2022-09-23T06:10:38;12.10;99.90
34768;DHT22;21755;43.608;1.236;2022-09-23T06:13:04;12.00;99.90
34768;DHT22;21755;43.608;1.236;2022-09-23T06:15:30;12.00;99.90
34768;DHT22;21755;43.608;1.236;2022-09-23T06:17:57;12.00;99.90
34768;DHT22;21755;43.608;1.236;2022-09-23T06:20:24;12.00;99.90
34768;DHT22;21755;43.608;1.236;2022-09-23T06:22:50;12.10;99.90
34768;DHT22;21755;43.608;1.236;2022-09-23T06:25:16;12.20;99.90
34768;DHT22;21755;43.608;1.236;2022-09-23T06:27:50;12.30;99.90
34768;DHT22;21755;43.608;1.236;2022-09-23T06:30:19;12.50;99.90
34768;DHT22;21755;43.608;1.236;2022-09-23T06:32:49;12.60;99.90
34768;DHT22;21755;43.608;1.236;2022-09-23T06:35:18;12.70;99.90
34768;DHT22;21755;43.608;1.236;2022-09-23T06:37:45;12.80;99.90
34768;DHT22;21755;43.608;1.236;2022-09-23T06:40:11;12.90;99.90
34768;DHT22;21755;43.608;1.236;2022-09-23T06:42:39;13.00;99.90
34768;DHT22;21755;43.608;1.236;2022-09-23T06:45:05;13.10;99.90
34768;DHT22;21755;43.608;1.236;2022-09-23T06:47:31;13.20;99.90
34768;DHT22;21755;43.608;1.236;2022-09-23T06:49:57;13.40;99.90
34768;DHT22;21755;43.608;1.236;2022-09-23T06:52:23;13.50;99.90
34768;DHT22;21755;43.608;1.236;2022-09-23T06:54:51;13.60;99.90
34768;DHT22;21755;43.608;1.236;2022-09-23T06:57:17;13.70;99.90
34768;DHT22;21755;43.608;1.236;2022-09-23T06:59:42;13.80;99.90
34768;DHT22;21755;43.608;1.236;2022-09-23T07:02:11;14.00;99.90
34768;DHT22;21755;43.608;1.236;2022-09-23T07:04:37;14.10;99.90
34768;DHT22;21755;43.608;1.236;2022-09-23T07:07:03;14.20;99.90
34768;DHT22;21755;43.608;1.236;2022-09-23T07:09:29;14.30;99.90
34768;DHT22;21755;43.608;1.236;2022-09-23T07:11:55;14.30;99.90
34768;DHT22;21755;43.608;1.236;2022-09-23T07:14:21;14.50;99.90
34768;DHT22;21755;43.608;1.236;2022-09-23T07:16:48;14.60;99.90
34768;DHT22;21755;43.608;1.236;2022-09-23T07:19:15;14.70;99.90
34768;DHT22;21755;43.608;1.236;2022-09-23T07:21:41;14.70;99.90
34768;DHT22;21755;43.608;1.236;2022-09-23T07:24:07;14.70;99.90
34768;DHT22;21755;43.608;1.236;2022-09-23T07:26:33;14.70;99.90
34768;DHT22;21755;43.608;1.236;2022-09-23T07:29:00;14.80;99.90
34768;DHT22;21755;43.608;1.236;2022-09-23T07:31:31;14.90;99.90
34768;DHT22;21755;43.608;1.236;2022-09-23T07:33:58;15.10;99.90
34768;DHT22;21755;43.608;1.236;2022-09-23T07:36:25;15.30;99.90
34768;DHT22;21755;43.608;1.236;2022-09-23T07:38:53;15.30;99.90
34768;DHT22;21755;43.608;1.236;2022-09-23T07:41:24;15.40;99.90
34768;DHT22;21755;43.608;1.236;2022-09-23T07:43:53;15.50;99.90
34768;DHT22;21755;43.608;1.236;2022-09-23T07:46:27;15.70;99.90
34768;DHT22;21755;43.608;1.236;2022-09-23T07:48:53;15.80;99.90
34768;DHT22;21755;43.608;1.236;2022-09-23T07:51:29;16.00;99.90
34768;DHT22;21755;43.608;1.236;2022-09-23T07:53:56;16.20;99.90
34768;DHT22;21755;43.608;1.236;2022-09-23T07:56:27;16.50;99.90
34768;DHT22;21755;43.608;1.236;2022-09-23T07:58:53;16.60;99.90
34768;DHT22;21755;43.608;1.236;2022-09-23T08:01:26;16.70;99.90
34768;DHT22;21755;43.608;1.236;2022-09-23T08:04:04;16.80;99.90
34768;DHT22;21755;43.608;1.236;2022-09-23T08:06:31;16.90;99.90
34768;DHT22;21755;43.608;1.236;2022-09-23T08:08:58;17.00;99.90
34768;DHT22;21755;43.608;1.236;2022-09-23T08:11:25;17.20;99.90
34768;DHT22;21755;43.608;1.236;2022-09-23T08:13:52;17.30;99.90
34768;DHT22;21755;43.608;1.236;2022-09-23T08:16:20;17.50;99.90
34768;DHT22;21755;43.608;1.236;2022-09-23T08:18:46;17.70;99.90
34768;DHT22;21755;43.608;1.236;2022-09-23T08:21:18;17.90;99.90
34768;DHT22;21755;43.608;1.236;2022-09-23T08:23:44;18.00;99.90
34768;DHT22;21755;43.608;1.236;2022-09-23T08:26:11;18.20;99.90
34768;DHT22;21755;43.608;1.236;2022-09-23T08:28:37;18.30;99.90
34768;DHT22;21755;43.608;1.236;2022-09-23T08:31:03;18.60;99.90
34768;DHT22;21755;43.608;1.236;2022-09-23T08:33:30;18.70;99.90
34768;DHT22;21755;43.608;1.236;2022-09-23T08:36:00;19.00;99.90
34768;DHT22;21755;43.608;1.236;2022-09-23T08:38:26;19.20;99.90
34768;DHT22;21755;43.608;1.236;2022-09-23T08:41:01;19.30;99.90
34768;DHT22;21755;43.608;1.236;2022-09-23T08:43:31;19.40;99.90
34768;DHT22;21755;43.608;1.236;2022-09-23T08:46:02;19.60;99.90
34768;DHT22;21755;43.608;1.236;2022-09-23T08:48:31;19.60;99.90
34768;DHT22;21755;43.608;1.236;2022-09-23T08:51:05;19.70;99.90
34768;DHT22;21755;43.608;1.236;2022-09-23T08:53:33;19.80;99.90
34768;DHT22;21755;43.608;1.236;2022-09-23T08:56:09;19.90;99.90
34768;DHT22;21755;43.608;1.236;2022-09-23T09:01:44;20.20;99.90
34768;DHT22;21755;43.608;1.236;2022-09-23T09:09:42;20.60;99.90
34768;DHT22;21755;43.608;1.236;2022-09-23T09:15:33;20.80;99.90
34768;DHT22;21755;43.608;1.236;2022-09-23T09:18:18;21.00;99.90
34768;DHT22;21755;43.608;1.236;2022-09-23T09:26:38;21.70;99.90
34768;DHT22;21755;43.608;1.236;2022-09-23T09:29:22;21.80;99.90
34768;DHT22;21755;43.608;1.236;2022-09-23T09:31:50;22.00;99.90
34768;DHT22;21755;43.608;1.236;2022-09-23T09:37:19;21.90;99.90
34768;DHT22;21755;43.608;1.236;2022-09-23T09:39:47;21.90;99.90
34768;DHT22;21755;43.608;1.236;2022-09-23T09:42:23;21.90;99.90
34768;DHT22;21755;43.608;1.236;2022-09-23T09:49:54;22.00;99.90
34768;DHT22;21755;43.608;1.236;2022-09-23T09:52:28;22.40;99.90
34768;DHT22;21755;43.608;1.236;2022-09-23T09:55:32;22.60;99.90
34768;DHT22;21755;43.608;1.236;2022-09-23T09:58:00;22.70;99.90
34768;DHT22;21755;43.608;1.236;2022-09-23T10:08:35;22.40;99.90
34768;DHT22;21755;43.608;1.236;2022-09-23T10:11:13;22.50;99.90
34768;DHT22;21755;43.608;1.236;2022-09-23T10:16:33;22.90;99.90
34768;DHT22;21755;43.608;1.236;2022-09-23T10:19:00;22.90;99.90
34768;DHT22;21755;43.608;1.236;2022-09-23T10:21:32;23.00;99.90
34768;DHT22;21755;43.608;1.236;2022-09-23T10:24:03;23.30;99.90
34768;DHT22;21755;43.608;1.236;2022-09-23T10:26:42;23.40;99.90
34768;DHT22;21755;43.608;1.236;2022-09-23T10:32:33;23.60;99.90
34768;DHT22;21755;43.608;1.236;2022-09-23T10:39:57;23.80;99.90
34768;DHT22;21755;43.608;1.236;2022-09-23T10:42:53;23.90;99.90
34768;DHT22;21755;43.608;1.236;2022-09-23T10:45:47;24.00;99.90
34768;DHT22;21755;43.608;1.236;2022-09-23T10:54:03;24.10;99.90
34768;DHT22;21755;43.608;1.236;2022-09-23T10:56:39;24.10;99.90
34768;DHT22;21755;43.608;1.236;2022-09-23T11:04:49;24.70;99.90
34768;DHT22;21755;43.608;1.236;2022-09-23T11:07:38;24.80;99.90
34768;DHT22;21755;43.608;1.236;2022-09-23T11:18:56;24.90;99.90
34768;DHT22;21755;43.608;1.236;2022-09-23T11:35:59;25.10;99.90
34768;DHT22;21755;43.608;1.236;2022-09-23T11:38:41;25.10;99.90
34768;DHT22;21755;43.608;1.236;2022-09-23T11:41:26;25.30;99.90
34768;DHT22;21755;43.608;1.236;2022-09-23T11:43:59;25.50;99.90
34768;DHT22;21755;43.608;1.236;2022-09-23T11:46:44;25.60;99.90
34768;DHT22;21755;43.608;1.236;2022-09-23T11:49:23;25.60;99.90
34768;DHT22;21755;43.608;1.236;2022-09-23T11:52:00;25.50;99.90
34768;DHT22;21755;43.608;1.236;2022-09-23T11:54:42;25.30;99.90
34768;DHT22;21755;43.608;1.236;2022-09-23T11:57:22;25.40;99.90
34768;DHT22;21755;43.608;1.236;2022-09-23T11:59:55;25.40;99.90
34768;DHT22;21755;43.608;1.236;2022-09-23T12:05:15;25.50;99.90
34768;DHT22;21755;43.608;1.236;2022-09-23T12:07:50;25.40;99.90
34768;DHT22;21755;43.608;1.236;2022-09-23T12:10:22;25.20;99.90
34768;DHT22;21755;43.608;1.236;2022-09-23T12:13:09;25.20;99.90
34768;DHT22;21755;43.608;1.236;2022-09-23T12:21:12;25.50;99.90
34768;DHT22;21755;43.608;1.236;2022-09-23T12:26:32;25.70;99.90
34768;DHT22;21755;43.608;1.236;2022-09-23T12:29:00;25.60;99.90
34768;DHT22;21755;43.608;1.236;2022-09-23T12:31:28;25.60;99.90
34768;DHT22;21755;43.608;1.236;2022-09-23T12:34:16;25.50;99.90
34768;DHT22;21755;43.608;1.236;2022-09-23T12:36:43;25.50;99.90
34768;DHT22;21755;43.608;1.236;2022-09-23T12:39:31;25.40;99.90
34768;DHT22;21755;43.608;1.236;2022-09-23T12:42:20;25.30;99.90
34768;DHT22;21755;43.608;1.236;2022-09-23T12:44:48;25.30;99.90
34768;DHT22;21755;43.608;1.236;2022-09-23T12:49:50;25.50;99.90
34768;DHT22;21755;43.608;1.236;2022-09-23T12:54:44;25.50;99.90
34768;DHT22;21755;43.608;1.236;2022-09-23T13:00:22;25.50;99.90
34768;DHT22;21755;43.608;1.236;2022-09-23T13:05:59;25.50;99.90
34768;DHT22;21755;43.608;1.236;2022-09-23T13:08:45;25.40;99.90
34768;DHT22;21755;43.608;1.236;2022-09-23T13:11:29;25.30;99.90
34768;DHT22;21755;43.608;1.236;2022-09-23T13:13:59;25.40;99.90
34768;DHT22;21755;43.608;1.236;2022-09-23T13:16:30;25.70;99.90
34768;DHT22;21755;43.608;1.236;2022-09-23T13:18:59;25.60;99.90
34768;DHT22;21755;43.608;1.236;2022-09-23T13:26:52;25.50;99.70
34768;DHT22;21755;43.608;1.236;2022-09-23T13:31:47;25.30;99.90
34768;DHT22;21755;43.608;1.236;2022-09-23T13:34:15;25.30;99.90
34768;DHT22;21755;43.608;1.236;2022-09-23T13:36:44;25.20;99.90
34768;DHT22;21755;43.608;1.236;2022-09-23T13:39:25;25.10;99.90
34768;DHT22;21755;43.608;1.236;2022-09-23T13:41:52;25.10;99.90
34768;DHT22;21755;43.608;1.236;2022-09-23T13:44:20;25.10;99.90
34768;DHT22;21755;43.608;1.236;2022-09-23T13:46:59;25.00;99.90
34768;DHT22;21755;43.608;1.236;2022-09-23T13:49:33;24.90;99.90
34768;DHT22;21755;43.608;1.236;2022-09-23T13:52:00;24.90;99.90
34768;DHT22;21755;43.608;1.236;2022-09-23T13:54:29;24.90;99.90
34768;DHT22;21755;43.608;1.236;2022-09-23T13:56:55;24.90;99.90
34768;DHT22;21755;43.608;1.236;2022-09-23T13:59:27;24.80;99.90
34768;DHT22;21755;43.608;1.236;2022-09-23T14:04:29;24.70;99.90
34768;DHT22;21755;43.608;1.236;2022-09-23T14:06:55;24.60;99.90
34768;DHT22;21755;43.608;1.236;2022-09-23T14:09:24;24.60;99.90
34768;DHT22;21755;43.608;1.236;2022-09-23T14:11:52;24.60;99.90
34768;DHT22;21755;43.608;1.236;2022-09-23T14:14:20;24.50;99.90
34768;DHT22;21755;43.608;1.236;2022-09-23T14:16:48;24.50;99.90
34768;DHT22;21755;43.608;1.236;2022-09-23T14:19:22;24.50;99.90
34768;DHT22;21755;43.608;1.236;2022-09-23T14:21:53;24.40;99.90
34768;DHT22;21755;43.608;1.236;2022-09-23T14:24:28;24.30;99.90
34768;DHT22;21755;43.608;1.236;2022-09-23T14:26:55;24.30;99.90
34768;DHT22;21755;43.608;1.236;2022-09-23T14:29:26;24.30;99.90
34768;DHT22;21755;43.608;1.236;2022-09-23T14:31:55;24.30;99.90
34768;DHT22;21755;43.608;1.236;2022-09-23T14:40:16;24.20;99.90
34768;DHT22;21755;43.608;1.236;2022-09-23T14:45:25;24.20;99.90
34768;DHT22;21755;43.608;1.236;2022-09-23T14:48:22;24.20;99.90
34768;DHT22;21755;43.608;1.236;2022-09-23T14:50:47;24.20;99.90
34768;DHT22;21755;43.608;1.236;2022-09-23T14:55:44;24.20;99.90
34768;DHT22;21755;43.608;1.236;2022-09-23T14:58:15;24.20;99.90
34768;DHT22;21755;43.608;1.236;2022-09-23T15:00:56;24.20;99.90
34768;DHT22;21755;43.608;1.236;2022-09-23T15:03:22;24.20;99.90
34768;DHT22;21755;43.608;1.236;2022-09-23T15:05:50;24.20;99.90
34768;DHT22;21755;43.608;1.236;2022-09-23T15:08:21;24.20;99.90
34768;DHT22;21755;43.608;1.236;2022-09-23T15:10:48;24.20;99.90
34768;DHT22;21755;43.608;1.236;2022-09-23T15:13:17;24.20;99.90
34768;DHT22;21755;43.608;1.236;2022-09-23T15:15:44;24.20;99.90
34768;DHT22;21755;43.608;1.236;2022-09-23T15:18:31;24.20;99.90
34768;DHT22;21755;43.608;1.236;2022-09-23T15:21:10;24.20;99.90
34768;DHT22;21755;43.608;1.236;2022-09-23T15:23:47;24.20;99.90
34768;DHT22;21755;43.608;1.236;2022-09-23T15:26:17;24.20;99.90
34768;DHT22;21755;43.608;1.236;2022-09-23T15:28:44;24.20;99.90
34768;DHT22;21755;43.608;1.236;2022-09-23T15:31:15;24.20;99.90
34768;DHT22;21755;43.608;1.236;2022-09-23T15:33:46;24.20;99.90
34768;DHT22;21755;43.608;1.236;2022-09-23T15:36:26;24.20;99.90
34768;DHT22;21755;43.608;1.236;2022-09-23T15:38:53;24.10;99.90
34768;DHT22;21755;43.608;1.236;2022-09-23T15:41:23;24.00;99.90
34768;DHT22;21755;43.608;1.236;2022-09-23T15:43:49;24.00;99.90
34768;DHT22;21755;43.608;1.236;2022-09-23T15:46:24;24.10;99.90
34768;DHT22;21755;43.608;1.236;2022-09-23T15:48:58;24.00;99.90
34768;DHT22;21755;43.608;1.236;2022-09-23T15:51:26;24.00;99.90
34768;DHT22;21755;43.608;1.236;2022-09-23T15:53:53;23.90;99.90
34768;DHT22;21755;43.608;1.236;2022-09-23T15:56:21;23.90;99.90
34768;DHT22;21755;43.608;1.236;2022-09-23T15:58:48;23.90;99.90
34768;DHT22;21755;43.608;1.236;2022-09-23T16:01:35;23.80;99.90
34768;DHT22;21755;43.608;1.236;2022-09-23T16:04:03;23.80;99.90
34768;DHT22;21755;43.608;1.236;2022-09-23T16:06:30;23.70;99.90
34768;DHT22;21755;43.608;1.236;2022-09-23T16:08:56;23.60;99.90
34768;DHT22;21755;43.608;1.236;2022-09-23T16:11:25;23.60;99.90
34768;DHT22;21755;43.608;1.236;2022-09-23T16:13:52;23.50;99.90
34768;DHT22;21755;43.608;1.236;2022-09-23T16:16:18;23.50;99.90
34768;DHT22;21755;43.608;1.236;2022-09-23T16:18:46;23.40;99.90
34768;DHT22;21755;43.608;1.236;2022-09-23T16:21:18;23.40;99.90
34768;DHT22;21755;43.608;1.236;2022-09-23T16:23:45;23.10;99.90
34768;DHT22;21755;43.608;1.236;2022-09-23T16:26:54;22.50;99.90
34768;DHT22;21755;43.608;1.236;2022-09-23T16:29:13;22.20;99.90
34768;DHT22;21755;43.608;1.236;2022-09-23T16:31:39;21.80;99.90
34768;DHT22;21755;43.608;1.236;2022-09-23T16:34:05;21.60;99.90
34768;DHT22;21755;43.608;1.236;2022-09-23T16:36:37;21.50;99.90
34768;DHT22;21755;43.608;1.236;2022-09-23T16:39:07;21.30;99.90
34768;DHT22;21755;43.608;1.236;2022-09-23T16:41:34;21.30;99.90
34768;DHT22;21755;43.608;1.236;2022-09-23T16:44:01;21.20;99.90
34768;DHT22;21755;43.608;1.236;2022-09-23T16:46:29;21.20;99.90
34768;DHT22;21755;43.608;1.236;2022-09-23T16:48:56;21.20;99.90
34768;DHT22;21755;43.608;1.236;2022-09-23T16:51:25;21.20;99.90
34768;DHT22;21755;43.608;1.236;2022-09-23T16:53:52;21.20;99.90
34768;DHT22;21755;43.608;1.236;2022-09-23T16:56:20;21.20;99.90
34768;DHT22;21755;43.608;1.236;2022-09-23T16:58:50;21.20;99.90
34768;DHT22;21755;43.608;1.236;2022-09-23T17:01:21;21.10;99.90
34768;DHT22;21755;43.608;1.236;2022-09-23T17:04:06;21.00;99.90
34768;DHT22;21755;43.608;1.236;2022-09-23T17:06:33;20.90;99.90
34768;DHT22;21755;43.608;1.236;2022-09-23T17:08:59;21.00;99.90
34768;DHT22;21755;43.608;1.236;2022-09-23T17:11:27;21.00;99.90
34768;DHT22;21755;43.608;1.236;2022-09-23T17:13:54;21.00;99.90
34768;DHT22;21755;43.608;1.236;2022-09-23T17:16:28;20.90;99.90
34768;DHT22;21755;43.608;1.236;2022-09-23T17:18:55;20.80;99.90
34768;DHT22;21755;43.608;1.236;2022-09-23T17:21:26;20.70;99.90
34768;DHT22;21755;43.608;1.236;2022-09-23T17:23:56;20.50;99.90
34768;DHT22;21755;43.608;1.236;2022-09-23T17:26:24;20.40;99.90
34768;DHT22;21755;43.608;1.236;2022-09-23T17:28:51;20.20;99.90
34768;DHT22;21755;43.608;1.236;2022-09-23T17:31:18;20.10;99.90
34768;DHT22;21755;43.608;1.236;2022-09-23T17:33:47;19.80;99.90
34768;DHT22;21755;43.608;1.236;2022-09-23T17:36:14;19.50;99.90
34768;DHT22;21755;43.608;1.236;2022-09-23T17:38:44;19.40;99.90
34768;DHT22;21755;43.608;1.236;2022-09-23T17:41:11;19.20;99.90
34768;DHT22;21755;43.608;1.236;2022-09-23T17:43:37;19.00;99.90
34768;DHT22;21755;43.608;1.236;2022-09-23T17:46:06;18.90;99.90
34768;DHT22;21755;43.608;1.236;2022-09-23T17:48:34;18.90;99.90
34768;DHT22;21755;43.608;1.236;2022-09-23T17:51:05;18.70;99.90
34768;DHT22;21755;43.608;1.236;2022-09-23T17:53:36;18.70;99.90
34768;DHT22;21755;43.608;1.236;2022-09-23T17:56:15;18.60;99.90
34768;DHT22;21755;43.608;1.236;2022-09-23T17:58:42;18.50;99.90
34768;DHT22;21755;43.608;1.236;2022-09-23T18:01:13;18.30;99.90
34768;DHT22;21755;43.608;1.236;2022-09-23T18:03:39;18.20;99.90
34768;DHT22;21755;43.608;1.236;2022-09-23T18:06:19;18.10;99.90
34768;DHT22;21755;43.608;1.236;2022-09-23T18:08:47;18.10;99.90
34768;DHT22;21755;43.608;1.236;2022-09-23T18:11:20;18.10;99.90
34768;DHT22;21755;43.608;1.236;2022-09-23T18:13:56;18.00;99.90
34768;DHT22;21755;43.608;1.236;2022-09-23T18:16:24;18.10;99.90
34768;DHT22;21755;43.608;1.236;2022-09-23T18:18:55;18.00;99.90
34768;DHT22;21755;43.608;1.236;2022-09-23T18:21:23;18.10;99.90
34768;DHT22;21755;43.608;1.236;2022-09-23T18:23:49;18.10;99.90
34768;DHT22;21755;43.608;1.236;2022-09-23T18:26:17;18.10;99.90
34768;DHT22;21755;43.608;1.236;2022-09-23T18:28:43;18.00;99.90
34768;DHT22;21755;43.608;1.236;2022-09-23T18:31:10;18.00;99.90